createdAt,value
2023-05-05T11:21:42.546Z,0.50
2023-05-05T11:22:42.541Z,0.50
2023-05-05T11:23:42.557Z,0.50
2023-05-05T11:24:42.536Z,0.50
2023-05-05T11:25:42.518Z,0.50
2023-05-05T11:26:42.534Z,0.34
2023-05-05T11:27:42.522Z,0.34
2023-05-05T11:28:42.510Z,0.34
2023-05-05T11:29:42.507Z,0.34
2023-05-05T11:30:42.544Z,0.34
2023-05-05T11:31:42.517Z,0.34
2023-05-05T11:32:42.542Z,0.34
2023-05-05T11:33:42.462Z,0.34
2023-05-05T11:34:42.493Z,0.34
2023-05-05T11:35:42.480Z,0.34
2023-05-05T11:36:42.445Z,0.34
2023-05-05T11:37:42.520Z,0.34
2023-05-05T11:38:42.452Z,0.34
2023-05-05T11:39:42.434Z,0.34
2023-05-05T11:40:42.439Z,0.34
2023-05-05T11:41:42.445Z,0.34
2023-05-05T11:42:42.421Z,0.34
2023-05-05T11:43:42.405Z,0.34
2023-05-05T11:44:42.406Z,0.34
2023-05-05T11:45:42.402Z,0.34
2023-05-05T11:46:42.471Z,0.34
2023-05-05T11:47:42.421Z,0.34
2023-05-05T11:48:42.380Z,0.34
2023-05-05T11:49:42.378Z,0.34
2023-05-05T11:50:42.392Z,0.34
2023-05-05T11:51:42.350Z,0.34
2023-05-05T11:52:42.381Z,0.34
2023-05-05T11:53:42.374Z,0.34
2023-05-05T11:54:42.340Z,0.34
2023-05-05T11:55:42.343Z,0.34
2023-05-05T11:56:42.344Z,0.34
2023-05-05T11:57:42.320Z,0.34
2023-05-05T11:58:42.302Z,0.34
2023-05-05T11:59:42.364Z,0.34
2023-05-05T12:00:42.409Z,0.34
2023-05-05T12:01:42.453Z,0.34
2023-05-05T12:02:42.559Z,0.34
2023-05-05T12:03:42.662Z,0.34
2023-05-05T12:04:42.633Z,0.34
2023-05-05T12:05:42.644Z,0.34
2023-05-05T12:06:42.714Z,0.34
2023-05-05T12:07:42.723Z,0.34
2023-05-05T12:08:42.782Z,0.34
2023-05-05T12:09:42.852Z,0.34
2023-05-05T12:10:42.853Z,0.34
2023-05-05T12:11:42.893Z,0.34
2023-05-05T12:12:42.955Z,0.34
2023-05-05T12:13:42.928Z,0.34
2023-05-05T12:14:42.939Z,0.34
2023-05-05T12:15:42.965Z,0.34
2023-05-05T12:16:43.071Z,0.34
2023-05-05T12:17:43.085Z,0.34
2023-05-05T12:18:43.005Z,0.34
2023-05-05T12:19:43.001Z,0.34
2023-05-05T12:20:42.982Z,0.34
2023-05-05T12:21:42.994Z,0.34
2023-05-05T12:22:42.986Z,0.34
2023-05-05T12:23:43.008Z,0.34
2023-05-05T12:24:42.999Z,0.34
2023-05-05T12:25:43.174Z,0.34
2023-05-05T12:26:42.991Z,0.34
2023-05-05T12:27:43.123Z,0.34
2023-05-05T12:28:43.023Z,0.34
2023-05-05T12:29:43.035Z,0.34
2023-05-05T12:30:43.062Z,0.34
2023-05-05T12:31:43.091Z,0.34
2023-05-05T12:32:43.165Z,0.34
2023-05-05T12:33:43.102Z,0.34
2023-05-05T12:34:43.113Z,0.34
2023-05-05T12:35:43.149Z,0.34
2023-05-05T12:36:43.197Z,0.34
2023-05-05T12:37:43.198Z,0.34
2023-05-05T12:38:43.225Z,0.34
2023-05-05T12:39:43.246Z,0.34
2023-05-05T12:40:43.316Z,0.34
2023-05-05T12:41:43.438Z,0.34
2023-05-05T12:42:45.101Z,0.34
2023-05-05T12:43:43.401Z,0.34
2023-05-05T12:44:43.403Z,0.34
2023-05-05T12:45:43.396Z,0.42
2023-05-05T12:46:43.396Z,0.43
2023-05-05T12:47:43.433Z,0.34
2023-05-05T12:48:45.611Z,0.34
2023-05-05T12:49:43.355Z,0.34
2023-05-05T12:50:43.359Z,0.35
2023-05-05T12:51:43.334Z,0.34
2023-05-05T12:52:43.348Z,0.34
2023-05-05T12:53:43.323Z,0.43
2023-05-05T12:54:43.320Z,0.55
2023-05-05T12:55:43.319Z,0.78
2023-05-05T12:56:43.299Z,0.61
2023-05-05T12:57:43.428Z,0.73
2023-05-05T12:58:43.769Z,0.79
2023-05-05T12:59:43.291Z,0.77
2023-05-05T13:00:43.407Z,0.68
2023-05-05T13:01:43.335Z,0.46
2023-05-05T13:02:43.371Z,0.59
2023-05-05T13:03:43.315Z,0.73
2023-05-05T13:04:43.251Z,0.34
2023-05-05T13:05:43.227Z,0.46
2023-05-05T13:06:43.253Z,0.57
2023-05-05T13:07:43.219Z,0.58
2023-05-05T13:08:43.293Z,0.76
2023-05-05T13:09:43.191Z,0.59
2023-05-05T13:10:43.219Z,0.93
2023-05-05T13:11:43.195Z,0.93
2023-05-05T13:12:43.295Z,0.72
2023-05-05T13:13:43.420Z,0.88
2023-05-05T13:14:43.367Z,1.02
2023-05-05T13:15:43.445Z,0.82
2023-05-05T13:16:43.451Z,0.97
2023-05-05T13:17:43.564Z,1.04
2023-05-05T13:18:43.577Z,0.85
2023-05-05T13:19:43.626Z,1.01
2023-05-05T13:20:43.674Z,1.13
2023-05-05T13:21:43.712Z,1.02
2023-05-05T13:22:43.760Z,1.00
2023-05-05T13:23:43.818Z,1.11
2023-05-05T13:24:51.883Z,1.19
2023-05-05T13:25:44.879Z,0.61
2023-05-05T13:26:43.857Z,0.34
2023-05-05T13:27:43.859Z,0.42
2023-05-05T13:28:43.858Z,0.69
2023-05-05T13:29:43.898Z,0.72
2023-05-05T13:30:43.829Z,0.84
2023-05-05T13:31:43.832Z,1.04
2023-05-05T13:32:43.865Z,0.88
2023-05-05T13:33:43.789Z,0.84
2023-05-05T13:34:43.827Z,1.00
2023-05-05T13:35:43.865Z,0.82
2023-05-05T13:36:43.923Z,0.66
2023-05-05T13:37:43.979Z,0.81
2023-05-05T13:38:44.029Z,0.90
2023-05-05T13:39:44.095Z,0.99
2023-05-05T13:40:44.168Z,0.75
2023-05-05T13:41:44.225Z,0.91
2023-05-05T13:42:44.296Z,0.78
2023-05-05T13:43:44.358Z,0.91
2023-05-05T13:44:44.425Z,1.02
2023-05-05T13:45:44.906Z,0.44
2023-05-05T13:46:44.560Z,0.67
2023-05-05T13:47:44.673Z,0.77
2023-05-05T13:48:45.087Z,0.85
2023-05-05T13:49:44.733Z,0.61
2023-05-05T13:50:44.769Z,0.45
2023-05-05T13:51:44.816Z,0.54
2023-05-05T13:52:44.906Z,0.68
2023-05-05T13:53:44.959Z,1.02
2023-05-05T13:54:45.027Z,1.06
2023-05-05T13:55:45.057Z,0.70
2023-05-05T13:56:45.101Z,0.65
2023-05-05T13:57:45.144Z,0.50
2023-05-05T13:58:45.188Z,0.54
2023-05-05T13:59:45.229Z,0.51
2023-05-05T14:00:45.333Z,0.54
2023-05-05T14:01:45.332Z,0.61
2023-05-05T14:02:45.360Z,0.52
2023-05-05T14:03:45.382Z,0.57
2023-05-05T14:04:45.403Z,0.53
2023-05-05T14:05:45.457Z,0.58
2023-05-05T14:06:45.521Z,0.34
2023-05-05T14:07:45.515Z,0.34
2023-05-05T14:08:45.564Z,0.34
2023-05-05T14:09:45.561Z,0.34
2023-05-05T14:10:47.588Z,0.34
2023-05-05T14:11:45.621Z,0.34
2023-05-05T14:12:45.719Z,0.34
2023-05-05T14:13:45.810Z,0.34
2023-05-05T14:14:45.674Z,0.34
2023-05-05T14:15:45.697Z,0.45
2023-05-05T14:16:47.332Z,0.56
2023-05-05T14:17:45.836Z,0.76
2023-05-05T14:18:45.728Z,0.80
2023-05-05T14:19:45.731Z,0.91
2023-05-05T14:20:45.810Z,1.16
2023-05-05T14:21:45.709Z,1.55
2023-05-05T14:22:47.144Z,1.65
2023-05-05T14:23:45.726Z,1.66
2023-05-05T14:24:45.689Z,1.73
2023-05-05T14:25:45.823Z,1.77
2023-05-05T14:26:45.700Z,1.24
2023-05-05T14:27:45.673Z,1.15
2023-05-05T14:28:46.316Z,0.85
2023-05-05T14:29:45.675Z,0.86
2023-05-05T14:30:45.658Z,0.97
2023-05-05T14:31:45.687Z,1.23
2023-05-05T14:32:45.645Z,1.60
2023-05-05T14:33:45.732Z,3.03
2023-05-05T14:34:46.357Z,2.94
2023-05-05T14:35:45.601Z,3.46
2023-05-05T14:36:45.615Z,3.16
2023-05-05T14:37:45.598Z,3.75
2023-05-05T14:38:45.640Z,4.00
2023-05-05T14:39:45.600Z,3.75
2023-05-05T14:40:45.577Z,2.97
2023-05-05T14:41:45.603Z,1.16
2023-05-05T14:42:45.578Z,0.82
2023-05-05T14:43:45.588Z,0.80
2023-05-05T14:44:45.613Z,0.65
2023-05-05T14:45:45.621Z,0.84
2023-05-05T14:46:46.571Z,0.61
2023-05-05T14:47:45.655Z,0.91
2023-05-05T14:48:45.576Z,1.13
2023-05-05T14:49:45.726Z,1.00
2023-05-05T14:50:45.617Z,0.46
2023-05-05T14:51:45.658Z,0.41
2023-05-05T14:52:45.703Z,0.44
2023-05-05T14:53:45.722Z,0.52
2023-05-05T14:54:45.732Z,0.57
2023-05-05T14:55:45.755Z,0.66
2023-05-05T14:56:45.729Z,0.50
2023-05-05T14:57:45.732Z,0.51
2023-05-05T14:58:47.282Z,0.83
2023-05-05T14:59:45.787Z,0.81
2023-05-05T15:00:45.803Z,0.73
2023-05-05T15:01:45.831Z,0.76
2023-05-05T15:02:45.821Z,0.86
2023-05-05T15:03:45.869Z,0.88
2023-05-05T15:04:46.747Z,0.89
2023-05-05T15:05:45.848Z,1.10
2023-05-05T15:06:45.807Z,1.20
2023-05-05T15:07:45.806Z,1.15
2023-05-05T15:08:45.824Z,1.32
2023-05-05T15:09:45.825Z,1.49
2023-05-05T15:10:45.807Z,1.20
2023-05-05T15:11:45.896Z,1.41
2023-05-05T15:12:45.835Z,1.53
2023-05-05T15:13:45.831Z,1.55
2023-05-05T15:14:45.837Z,1.81
2023-05-05T15:15:45.879Z,1.45
2023-05-05T15:16:45.835Z,2.01
2023-05-05T15:17:45.929Z,2.19
2023-05-05T15:18:45.830Z,2.41
2023-05-05T15:19:45.855Z,2.21
2023-05-05T15:20:45.840Z,2.02
2023-05-05T15:21:45.913Z,2.17
2023-05-05T15:22:46.916Z,1.82
2023-05-05T15:23:45.877Z,1.82
2023-05-05T15:24:45.866Z,1.66
2023-05-05T15:25:45.865Z,1.79
2023-05-05T15:26:45.891Z,2.17
2023-05-05T15:27:45.917Z,2.17
2023-05-05T15:28:46.821Z,2.27
2023-05-05T15:29:45.919Z,2.25
2023-05-05T15:30:45.939Z,1.83
2023-05-05T15:31:45.961Z,1.63
2023-05-05T15:32:45.959Z,2.55
2023-05-05T15:33:45.977Z,3.67
2023-05-05T15:34:47.657Z,3.34
2023-05-05T15:35:45.955Z,2.72
2023-05-05T15:36:45.964Z,2.84
2023-05-05T15:37:45.962Z,3.46
2023-05-05T15:38:45.982Z,3.24
2023-05-05T15:39:45.949Z,3.86
2023-05-05T15:40:47.122Z,4.88
2023-05-05T15:41:45.907Z,4.51
2023-05-05T15:42:45.935Z,3.99
2023-05-05T15:43:45.941Z,3.47
2023-05-05T15:44:45.892Z,3.86
2023-05-05T15:45:45.906Z,5.20
2023-05-05T15:46:46.488Z,6.51
2023-05-05T15:47:45.944Z,5.31
2023-05-05T15:48:45.894Z,8.22
2023-05-05T15:49:45.871Z,7.22
2023-05-05T15:50:45.884Z,4.67
2023-05-05T15:51:45.926Z,4.10
2023-05-05T15:52:47.560Z,4.57
2023-05-05T15:53:46.054Z,5.27
2023-05-05T15:54:45.898Z,4.32
2023-05-05T15:55:45.909Z,5.60
2023-05-05T15:56:45.890Z,4.15
2023-05-05T15:57:45.897Z,4.05
2023-05-05T15:58:45.926Z,4.26
2023-05-05T15:59:45.902Z,5.05
2023-05-05T16:00:45.853Z,4.82
2023-05-05T16:01:45.922Z,5.22
2023-05-05T16:02:45.923Z,6.03
2023-05-05T16:03:45.987Z,8.85
2023-05-05T16:04:45.831Z,6.95
2023-05-05T16:05:45.833Z,6.71
2023-05-05T16:06:45.820Z,8.66
2023-05-05T16:07:45.807Z,6.53
2023-05-05T16:08:45.840Z,6.48
2023-05-05T16:09:45.813Z,6.16
2023-05-05T16:10:45.802Z,6.77
2023-05-05T16:11:45.795Z,7.30
2023-05-05T16:12:45.827Z,7.48
2023-05-05T16:13:45.789Z,9.24
2023-05-05T16:14:45.774Z,10.12
2023-05-05T16:15:45.768Z,12.07
2023-05-05T16:16:45.786Z,9.57
2023-05-05T16:17:45.838Z,9.40
2023-05-05T16:18:45.784Z,7.69
2023-05-05T16:19:45.736Z,7.77
2023-05-05T16:20:45.734Z,10.86
2023-05-05T16:21:45.765Z,10.99
2023-05-05T16:22:45.908Z,8.38
2023-05-05T16:23:45.744Z,10.97
2023-05-05T16:24:45.755Z,14.51
2023-05-05T16:25:45.744Z,11.62
2023-05-05T16:26:45.690Z,14.43
2023-05-05T16:27:45.671Z,14.46
2023-05-05T16:28:45.687Z,12.01
2023-05-05T16:29:45.682Z,11.85
2023-05-05T16:30:45.665Z,12.64
2023-05-05T16:31:45.679Z,14.75
2023-05-05T16:32:45.713Z,13.24
2023-05-05T16:33:45.682Z,14.51
2023-05-05T16:34:45.639Z,13.30
2023-05-05T16:35:45.733Z,11.69
2023-05-05T16:36:45.625Z,12.34
2023-05-05T16:37:45.613Z,14.48
2023-05-05T16:38:45.625Z,15.62
2023-05-05T16:39:45.602Z,20.87
2023-05-05T16:40:45.577Z,14.53
2023-05-05T16:41:45.591Z,15.31
2023-05-05T16:42:45.578Z,14.62
2023-05-05T16:43:45.557Z,15.89
2023-05-05T16:44:45.559Z,20.88
2023-05-05T16:45:45.560Z,20.88
2023-05-05T16:46:45.583Z,20.92
2023-05-05T16:47:45.557Z,24.57
2023-05-05T16:48:45.527Z,16.65
2023-05-05T16:49:45.536Z,71.61
2023-05-05T16:50:45.523Z,128.80
2023-05-05T16:51:45.507Z,101.01
2023-05-05T16:52:45.511Z,85.09
2023-05-05T16:53:47.563Z,81.77
2023-05-05T16:54:45.502Z,71.20
2023-05-05T16:55:45.490Z,82.29
2023-05-05T16:56:45.495Z,88.67
2023-05-05T16:57:45.535Z,88.66
2023-05-05T16:58:45.487Z,74.48
2023-05-05T16:59:45.480Z,49.50
2023-05-05T17:00:45.451Z,43.39
2023-05-05T17:01:45.502Z,44.98
2023-05-05T17:02:45.485Z,40.00
2023-05-05T17:03:45.432Z,57.32
2023-05-05T17:04:45.451Z,37.39
2023-05-05T17:05:47.184Z,36.77
2023-05-05T17:06:45.420Z,28.76
2023-05-05T17:07:45.435Z,23.70
2023-05-05T17:08:45.396Z,21.45
2023-05-05T17:09:45.418Z,25.30
2023-05-05T17:10:45.383Z,21.42
2023-05-05T17:11:45.391Z,20.05
2023-05-05T17:12:45.466Z,21.48
2023-05-05T17:13:45.448Z,19.82
2023-05-05T17:14:45.389Z,23.47
2023-05-05T17:15:45.435Z,24.53
2023-05-05T17:16:45.388Z,20.33
2023-05-05T17:17:45.389Z,18.13
2023-05-05T17:18:45.325Z,17.86
2023-05-05T17:19:45.352Z,18.46
2023-05-05T17:20:45.344Z,20.56
2023-05-05T17:21:45.329Z,16.94
2023-05-05T17:22:45.317Z,13.58
2023-05-05T17:23:45.307Z,12.03
2023-05-05T17:24:45.311Z,12.91
2023-05-05T17:25:45.303Z,13.70
2023-05-05T17:26:45.288Z,13.58
2023-05-05T17:27:45.290Z,14.48
2023-05-05T17:28:45.283Z,13.54
2023-05-05T17:29:45.334Z,13.92
2023-05-05T17:30:45.272Z,14.11
2023-05-05T17:31:45.259Z,12.31
2023-05-05T17:32:45.291Z,9.62
2023-05-05T17:33:45.270Z,15.08
2023-05-05T17:34:45.258Z,13.93
2023-05-05T17:35:45.233Z,25.08
2023-05-05T17:36:45.241Z,36.56
2023-05-05T17:37:45.230Z,39.33
2023-05-05T17:38:45.212Z,29.69
2023-05-05T17:39:45.207Z,19.52
2023-05-05T17:40:45.194Z,12.43
2023-05-05T17:41:45.198Z,12.49
2023-05-05T17:42:45.214Z,14.03
2023-05-05T17:43:45.183Z,14.03
2023-05-05T17:44:47.006Z,13.03
2023-05-05T17:45:45.302Z,20.78
2023-05-05T17:46:45.222Z,11.69
2023-05-05T17:47:45.284Z,11.13
2023-05-05T17:48:45.324Z,15.02
2023-05-05T17:49:45.299Z,17.83
2023-05-05T17:50:45.308Z,20.19
2023-05-05T17:51:45.368Z,16.56
2023-05-05T17:52:45.381Z,17.65
2023-05-05T17:53:45.382Z,17.95
2023-05-05T17:54:45.424Z,16.50
2023-05-05T17:55:45.444Z,15.85
2023-05-05T17:56:45.479Z,15.16
2023-05-05T17:57:45.505Z,20.06
2023-05-05T17:58:45.519Z,20.14
2023-05-05T17:59:45.553Z,20.94
2023-05-05T18:00:45.570Z,19.89
2023-05-05T18:01:45.796Z,17.82
2023-05-05T18:02:45.742Z,16.01
2023-05-05T18:03:45.724Z,16.35
2023-05-05T18:04:45.675Z,17.33
2023-05-05T18:05:45.721Z,17.74
2023-05-05T18:06:45.740Z,17.37
2023-05-05T18:07:45.764Z,16.75
2023-05-05T18:08:45.770Z,14.93
2023-05-05T18:09:45.830Z,17.68
2023-05-05T18:10:45.818Z,15.83
2023-05-05T18:11:45.858Z,15.75
2023-05-05T18:12:45.927Z,16.99
2023-05-05T18:13:45.918Z,16.48
2023-05-05T18:14:45.939Z,15.94
2023-05-05T18:15:46.009Z,16.70
2023-05-05T18:16:45.997Z,14.92
2023-05-05T18:17:46.074Z,16.26
2023-05-05T18:18:46.070Z,16.68
2023-05-05T18:19:48.987Z,18.43
2023-05-05T18:20:46.103Z,19.09
2023-05-05T18:21:46.077Z,18.06
2023-05-05T18:22:46.073Z,18.22
2023-05-05T18:23:46.058Z,17.23
2023-05-05T18:24:46.041Z,15.47
2023-05-05T18:25:46.058Z,18.74
2023-05-05T18:26:46.038Z,15.91
2023-05-05T18:27:46.019Z,16.52
2023-05-05T18:28:46.024Z,15.64
2023-05-05T18:29:46.023Z,17.36
2023-05-05T18:30:46.012Z,17.41
2023-05-05T18:31:46.027Z,17.60
2023-05-05T18:32:46.029Z,20.27
2023-05-05T18:33:47.650Z,20.70
2023-05-05T18:34:45.988Z,20.63
2023-05-05T18:35:45.979Z,20.05
2023-05-05T18:36:45.958Z,19.87
2023-05-05T18:37:45.968Z,22.18
2023-05-05T18:38:45.957Z,21.35
2023-05-05T18:39:45.942Z,22.39
2023-05-05T18:40:45.927Z,20.72
2023-05-05T18:41:46.016Z,22.32
2023-05-05T18:42:45.928Z,20.17
2023-05-05T18:43:45.926Z,20.79
2023-05-05T18:44:45.918Z,21.45
2023-05-05T18:45:45.952Z,21.85
2023-05-05T18:46:45.941Z,19.98
2023-05-05T18:47:45.918Z,18.49
2023-05-05T18:48:45.908Z,17.28
2023-05-05T18:49:45.948Z,18.27
2023-05-05T18:50:45.958Z,17.90
2023-05-05T18:51:46.017Z,16.82
2023-05-05T18:52:46.026Z,18.26
2023-05-05T18:53:46.071Z,17.86
2023-05-05T18:54:46.121Z,17.36
2023-05-05T18:55:46.144Z,15.91
2023-05-05T18:56:46.188Z,13.22
2023-05-05T18:57:46.218Z,11.56
2023-05-05T18:58:46.248Z,11.38
2023-05-05T18:59:46.300Z,10.70
2023-05-05T19:00:46.351Z,10.64
2023-05-05T19:01:46.380Z,10.70
2023-05-05T19:02:46.436Z,10.31
2023-05-05T19:03:46.482Z,10.57
2023-05-05T19:04:46.489Z,9.64
2023-05-05T19:05:46.616Z,10.91
2023-05-05T19:06:46.540Z,9.82
2023-05-05T19:07:46.602Z,10.09
2023-05-05T19:08:46.618Z,9.91
2023-05-05T19:09:46.647Z,11.22
2023-05-05T19:10:46.682Z,10.91
2023-05-05T19:11:46.737Z,10.67
2023-05-05T19:12:46.771Z,10.87
2023-05-05T19:13:46.807Z,10.41
2023-05-05T19:14:46.832Z,11.38
2023-05-05T19:15:46.880Z,12.02
2023-05-05T19:16:46.962Z,12.60
2023-05-05T19:17:47.015Z,12.69
2023-05-05T19:18:46.988Z,13.02
2023-05-05T19:19:47.016Z,12.92
2023-05-05T19:20:47.062Z,12.59
2023-05-05T19:21:47.214Z,12.51
2023-05-05T19:22:47.141Z,11.94
2023-05-05T19:23:47.165Z,11.34
2023-05-05T19:24:47.234Z,12.23
2023-05-05T19:25:47.293Z,12.21
2023-05-05T19:26:47.310Z,12.73
2023-05-05T19:27:47.335Z,13.45
2023-05-05T19:28:47.362Z,13.09
2023-05-05T19:29:47.418Z,13.94
2023-05-05T19:30:47.446Z,14.32
2023-05-05T19:31:47.524Z,14.25
2023-05-05T19:32:47.562Z,14.26
2023-05-05T19:33:47.580Z,13.79
2023-05-05T19:34:47.615Z,13.43
2023-05-05T19:35:47.664Z,13.69
2023-05-05T19:36:47.700Z,13.06
2023-05-05T19:37:47.797Z,13.62
2023-05-05T19:38:47.777Z,13.52
2023-05-05T19:39:49.028Z,14.41
2023-05-05T19:40:47.881Z,15.06
2023-05-05T19:41:47.909Z,14.21
2023-05-05T19:42:47.952Z,14.53
2023-05-05T19:43:47.990Z,15.78
2023-05-05T19:44:48.062Z,17.25
2023-05-05T19:45:48.163Z,17.35
2023-05-05T19:46:48.141Z,16.52
2023-05-05T19:47:48.207Z,17.33
2023-05-05T19:48:48.232Z,17.07
2023-05-05T19:49:48.279Z,18.48
2023-05-05T19:50:48.336Z,18.46
2023-05-05T19:51:48.367Z,18.91
2023-05-05T19:52:48.414Z,19.77
2023-05-05T19:53:48.480Z,19.44
2023-05-05T19:54:48.532Z,20.74
2023-05-05T19:55:48.576Z,19.18
2023-05-05T19:56:48.626Z,18.86
2023-05-05T19:57:48.683Z,19.27
2023-05-05T19:58:48.747Z,19.45
2023-05-05T19:59:48.778Z,19.32
2023-05-05T20:00:48.818Z,18.76
2023-05-05T20:01:48.958Z,18.19
2023-05-05T20:02:49.027Z,17.55
2023-05-05T20:03:49.049Z,17.86
2023-05-05T20:04:48.992Z,17.12
2023-05-05T20:05:49.078Z,17.37
2023-05-05T20:06:49.102Z,16.97
2023-05-05T20:07:49.179Z,16.72
2023-05-05T20:08:49.246Z,16.08
2023-05-05T20:09:49.864Z,17.03
2023-05-05T20:10:49.306Z,16.69
2023-05-05T20:11:49.378Z,16.97
2023-05-05T20:12:49.465Z,17.62
2023-05-05T20:13:49.466Z,16.97
2023-05-05T20:14:49.513Z,17.14
2023-05-05T20:15:49.596Z,17.11
2023-05-05T20:16:49.618Z,17.00
2023-05-05T20:17:49.727Z,17.07
2023-05-05T20:18:49.738Z,17.06
2023-05-05T20:19:49.806Z,16.81
2023-05-05T20:20:49.849Z,17.10
2023-05-05T20:21:49.888Z,16.70
2023-05-05T20:22:49.973Z,17.02
2023-05-05T20:23:50.006Z,16.72
2023-05-05T20:24:50.072Z,16.55
2023-05-05T20:25:50.307Z,16.46
2023-05-05T20:26:50.182Z,16.83
2023-05-05T20:27:50.247Z,16.74
2023-05-05T20:28:50.302Z,16.55
2023-05-05T20:29:50.396Z,16.34
2023-05-05T20:30:50.433Z,15.95
2023-05-05T20:31:50.544Z,16.29
2023-05-05T20:32:50.552Z,16.45
2023-05-05T20:33:50.624Z,16.01
2023-05-05T20:34:50.673Z,16.43
2023-05-05T20:35:50.735Z,16.57
2023-05-05T20:36:50.847Z,16.07
2023-05-05T20:37:50.849Z,15.83
2023-05-05T20:38:50.922Z,16.14
2023-05-05T20:39:50.992Z,16.49
2023-05-05T20:40:51.028Z,16.82
2023-05-05T20:41:51.183Z,16.57
2023-05-05T20:42:51.151Z,17.32
2023-05-05T20:43:51.182Z,17.19
2023-05-05T20:44:51.259Z,17.09
2023-05-05T20:45:51.335Z,17.66
2023-05-05T20:46:51.440Z,17.40
2023-05-05T20:47:51.456Z,17.42
2023-05-05T20:48:51.485Z,18.63
2023-05-05T20:49:51.562Z,18.44
2023-05-05T20:50:51.610Z,18.81
2023-05-05T20:51:51.680Z,19.12
2023-05-05T20:52:51.725Z,19.00
2023-05-05T20:53:51.790Z,18.91
2023-05-05T20:54:51.852Z,19.08
2023-05-05T20:55:51.902Z,18.02
2023-05-05T20:56:51.975Z,17.71
2023-05-05T20:57:52.050Z,17.73
2023-05-05T20:58:52.093Z,17.62
2023-05-05T20:59:52.166Z,17.91
2023-05-05T21:00:52.232Z,17.41
2023-05-05T21:01:52.295Z,17.90
2023-05-05T21:02:52.423Z,17.73
2023-05-05T21:03:52.386Z,16.97
2023-05-05T21:04:52.452Z,16.28
2023-05-05T21:05:52.561Z,17.08
2023-05-05T21:06:52.547Z,16.90
2023-05-05T21:07:52.622Z,16.72
2023-05-05T21:08:52.662Z,17.00
2023-05-05T21:09:52.712Z,17.15
2023-05-05T21:10:52.745Z,17.76
2023-05-05T21:11:52.808Z,17.76
2023-05-05T21:12:52.865Z,17.47
2023-05-05T21:13:52.968Z,17.71
2023-05-05T21:14:52.935Z,17.00
2023-05-05T21:15:52.998Z,17.35
2023-05-05T21:16:53.035Z,17.60
2023-05-05T21:17:53.052Z,18.45
2023-05-05T21:18:53.065Z,18.90
2023-05-05T21:19:53.117Z,18.57
2023-05-05T21:20:53.134Z,18.97
2023-05-05T21:21:53.165Z,19.38
2023-05-05T21:22:53.223Z,19.75
2023-05-05T21:23:53.240Z,19.93
2023-05-05T21:24:53.309Z,20.88
2023-05-05T21:25:53.342Z,21.37
2023-05-05T21:26:53.349Z,22.23
2023-05-05T21:27:53.420Z,22.54
2023-05-05T21:28:53.439Z,22.87
2023-05-05T21:29:53.541Z,23.09
2023-05-05T21:31:53.550Z,23.37
2023-05-05T21:32:53.550Z,25.32
2023-05-05T21:33:53.518Z,23.63
2023-05-05T21:34:53.510Z,23.78
2023-05-05T21:35:53.490Z,24.95
2023-05-05T21:36:53.480Z,24.78
2023-05-05T21:37:53.488Z,25.54
2023-05-05T21:38:53.478Z,25.58
2023-05-05T21:39:53.474Z,25.80
2023-05-05T21:40:53.462Z,25.79
2023-05-05T21:41:53.475Z,25.86
2023-05-05T21:42:53.460Z,26.93
2023-05-05T21:43:53.463Z,26.47
2023-05-05T21:44:53.433Z,26.77
2023-05-05T21:45:53.499Z,26.37
2023-05-05T21:46:53.442Z,27.08
2023-05-05T21:47:53.444Z,26.06
2023-05-05T21:48:53.423Z,25.98
2023-05-05T21:49:53.412Z,26.85
2023-05-05T21:50:53.417Z,26.49
2023-05-05T21:51:53.383Z,26.59
2023-05-05T21:52:53.399Z,26.74
2023-05-05T21:53:53.385Z,26.41
2023-05-05T21:54:53.387Z,26.14
2023-05-05T21:55:53.371Z,25.87
2023-05-05T21:56:53.367Z,25.58
2023-05-05T21:57:53.342Z,25.13
2023-05-05T21:58:53.354Z,25.89
2023-05-05T21:59:53.382Z,25.37
2023-05-05T22:00:53.358Z,24.82
2023-05-05T22:01:53.439Z,24.67
2023-05-05T22:02:53.392Z,26.32
2023-05-05T22:03:53.462Z,25.61
2023-05-05T22:04:53.327Z,26.00
2023-05-05T22:05:53.329Z,26.51
2023-05-05T22:06:53.301Z,26.08
2023-05-05T22:07:53.365Z,26.73
2023-05-05T22:08:53.280Z,26.71
2023-05-05T22:09:53.267Z,26.28
2023-05-05T22:10:53.262Z,26.51
2023-05-05T22:11:53.245Z,26.01
2023-05-05T22:12:53.264Z,27.87
2023-05-05T22:13:53.232Z,27.29
2023-05-05T22:14:53.239Z,27.36
2023-05-05T22:15:53.249Z,27.41
2023-05-05T22:16:53.206Z,27.94
2023-05-05T22:17:53.407Z,27.44
2023-05-05T22:18:53.207Z,27.05
2023-05-05T22:19:53.192Z,27.06
2023-05-05T22:20:53.189Z,26.60
2023-05-05T22:21:53.192Z,26.77
2023-05-05T22:22:53.168Z,26.77
2023-05-05T22:23:53.159Z,27.18
2023-05-05T22:24:53.178Z,27.11
2023-05-05T22:25:53.148Z,25.36
2023-05-05T22:26:53.152Z,24.67
2023-05-05T22:27:53.144Z,26.62
2023-05-05T22:28:53.125Z,24.87
2023-05-05T22:29:53.141Z,24.92
2023-05-05T22:30:53.107Z,25.11
2023-05-05T22:31:53.400Z,24.53
2023-05-05T22:32:53.186Z,24.85
2023-05-05T22:33:53.092Z,24.83
2023-05-05T22:34:53.087Z,24.14
2023-05-05T22:35:53.075Z,23.15
2023-05-05T22:36:53.080Z,23.66
2023-05-05T22:37:53.100Z,23.79
2023-05-05T22:38:53.054Z,23.59
2023-05-05T22:39:53.046Z,23.12
2023-05-05T22:40:53.066Z,22.95
2023-05-05T22:41:53.035Z,22.92
2023-05-05T22:42:53.047Z,22.36
2023-05-05T22:43:53.035Z,23.35
2023-05-05T22:44:53.006Z,23.67
2023-05-05T22:45:52.999Z,23.27
2023-05-05T22:46:53.036Z,23.87
2023-05-05T22:47:53.050Z,23.75
2023-05-05T22:48:52.974Z,23.53
2023-05-05T22:49:53.095Z,23.48
2023-05-05T22:50:52.963Z,23.91
2023-05-05T22:51:52.971Z,24.23
2023-05-05T22:52:52.958Z,23.61
2023-05-05T22:53:52.978Z,23.79
2023-05-05T22:54:52.956Z,23.72
2023-05-05T22:55:52.958Z,23.44
2023-05-05T22:56:52.929Z,24.60
2023-05-05T22:57:52.923Z,24.01
2023-05-05T22:58:52.919Z,23.19
2023-05-05T22:59:52.903Z,22.75
2023-05-05T23:00:52.942Z,23.41
2023-05-05T23:01:52.888Z,22.73
2023-05-05T23:02:52.934Z,23.20
2023-05-05T23:03:52.946Z,22.67
2023-05-05T23:04:52.863Z,22.68
2023-05-05T23:05:53.146Z,22.48
2023-05-05T23:06:52.850Z,22.91
2023-05-05T23:07:52.880Z,23.07
2023-05-05T23:08:52.870Z,22.92
2023-05-05T23:09:52.850Z,22.38
2023-05-05T23:10:52.839Z,21.48
2023-05-05T23:11:52.839Z,21.57
2023-05-05T23:12:52.865Z,21.06
2023-05-05T23:13:52.813Z,21.44
2023-05-05T23:14:52.814Z,21.83
2023-05-05T23:15:52.797Z,22.25
2023-05-05T23:16:52.877Z,22.40
2023-05-05T23:17:52.830Z,21.62
2023-05-05T23:18:52.758Z,22.35
2023-05-05T23:19:52.761Z,21.92
2023-05-05T23:20:52.791Z,22.25
2023-05-05T23:21:53.842Z,22.24
2023-05-05T23:22:52.747Z,21.84
2023-05-05T23:23:52.734Z,22.73
2023-05-05T23:24:52.718Z,21.66
2023-05-05T23:25:52.703Z,21.39
2023-05-05T23:26:52.713Z,22.50
2023-05-05T23:27:52.696Z,22.01
2023-05-05T23:28:52.700Z,21.71
2023-05-05T23:29:52.693Z,22.01
2023-05-05T23:30:52.777Z,22.85
2023-05-05T23:31:52.661Z,22.94
2023-05-05T23:32:52.715Z,23.24
2023-05-05T23:33:52.659Z,23.42
2023-05-05T23:34:52.655Z,23.39
2023-05-05T23:35:52.654Z,22.93
2023-05-05T23:36:52.623Z,23.87
2023-05-05T23:37:52.618Z,24.69
2023-05-05T23:38:52.628Z,24.50
2023-05-05T23:39:52.609Z,24.06
2023-05-05T23:40:52.614Z,23.94
2023-05-05T23:41:52.592Z,23.89
2023-05-05T23:42:52.594Z,23.56
2023-05-05T23:43:52.577Z,24.33
2023-05-05T23:44:52.581Z,24.26
2023-05-05T23:45:52.640Z,24.61
2023-05-05T23:46:52.559Z,24.39
2023-05-05T23:47:52.597Z,24.90
2023-05-05T23:48:52.539Z,25.04
2023-05-05T23:49:52.533Z,24.22
2023-05-05T23:50:52.550Z,24.45
2023-05-05T23:51:52.531Z,24.53
2023-05-05T23:52:52.511Z,24.70
2023-05-05T23:53:52.530Z,25.84
2023-05-05T23:54:52.536Z,24.12
2023-05-05T23:55:52.549Z,24.34
2023-05-05T23:56:52.569Z,25.00
2023-05-05T23:57:52.560Z,24.73
2023-05-05T23:58:52.569Z,25.53
2023-05-05T23:59:52.594Z,25.31
